Time;durP1;ratioP1;P1;durP2;ratioP2;P2;SDS_P1;SDS_P2;PMS_P1;PMS_P2;Temp;Humidity;BMP_temperature;BMP_pressure;BME280_temperature;BME280_humidity;BME280_pressure;Samples;Min_cycle;Max_cycle;Signal;HPM_P1;HPM_P2
2021/08/09 00:00:11;;;;;;;2.30;1.60;;;13.40;1.40;;;14.90;100.00;95693.30;645727;216;42664;-71
2021/08/09 00:02:52;;;;;;;2.00;1.40;;;13.40;1.40;;;14.85;100.00;95688.14;646433;212;42211;-72
2021/08/09 00:05:34;;;;;;;3.00;1.70;;;13.40;1.40;;;14.79;100.00;95684.51;646352;216;31589;-71
2021/08/09 00:08:16;;;;;;;2.25;1.30;;;13.30;1.40;;;14.81;100.00;95689.67;647075;216;35256;-72
2021/08/09 00:10:58;;;;;;;3.00;1.50;;;13.30;1.40;;;14.77;100.00;95689.38;645664;216;31654;-71
2021/08/09 00:13:42;;;;;;;2.87;1.40;;;13.30;1.40;;;14.85;100.00;95692.06;645991;213;31568;-70
2021/08/09 00:18:58;;;;;;;2.42;1.70;;;13.40;1.40;;;14.81;100.00;95687.54;646125;216;42160;-71
2021/08/09 00:21:43;;;;;;;2.15;1.60;;;13.30;1.40;;;14.82;100.00;95689.64;647062;212;40262;-71
2021/08/09 00:24:25;;;;;;;2.30;1.60;;;13.40;1.40;;;14.85;100.00;95691.50;619082;222;32585;-71
2021/08/09 00:27:06;;;;;;;2.00;1.60;;;13.40;1.40;;;14.92;100.00;95690.59;644918;212;31693;-71
2021/08/09 00:29:48;;;;;;;2.75;1.50;;;13.40;1.40;;;14.91;100.00;95685.38;646071;216;42249;-71
2021/08/09 00:35:51;;;;;;;1.70;1.60;;;13.20;1.40;;;14.79;100.00;95678.61;646860;216;31601;-70
2021/08/09 00:38:33;;;;;;;5.22;1.77;;;13.20;1.40;;;14.77;100.00;95684.34;645839;216;42178;-71
2021/08/09 00:41:15;;;;;;;1.70;1.50;;;13.10;1.40;;;14.62;100.00;95679.11;645523;216;39955;-72
2021/08/09 00:43:56;;;;;;;2.83;1.70;;;12.90;1.40;;;14.50;100.00;95680.92;618981;225;31973;-71
2021/08/09 00:49:12;;;;;;;3.20;1.70;;;12.90;1.40;;;14.42;100.00;95675.91;645252;216;31647;-71
2021/08/09 00:51:55;;;;;;;3.22;1.50;;;12.90;1.40;;;14.39;100.00;95677.32;646855;216;35875;-72
2021/08/09 00:54:35;;;;;;;2.50;1.70;;;12.90;1.40;;;14.33;100.00;95671.09;647107;216;42195;-71
2021/08/09 00:57:17;;;;;;;1.87;1.60;;;12.80;1.40;;;14.30;100.00;95669.73;645040;216;33533;-71
2021/08/09 00:59:59;;;;;;;3.40;1.50;;;12.60;1.40;;;14.07;100.00;95664.81;646131;212;31582;-71
2021/08/09 01:02:40;;;;;;;2.30;1.62;;;12.50;1.40;;;14.04;100.00;95663.40;646934;212;42212;-71
2021/08/09 01:05:25;;;;;;;2.05;1.85;;;12.30;1.40;;;13.97;100.00;95665.91;646612;212;35608;-70
2021/08/09 01:11:26;;;;;;;2.85;1.98;;;12.20;1.40;;;13.94;100.00;95664.91;645949;212;32233;-72
2021/08/09 01:14:26;;;;;;;3.50;1.70;;;12.10;1.40;;;13.75;100.00;95668.50;647737;216;32738;-71
2021/08/09 01:17:10;;;;;;;1.83;1.73;;;12.10;1.40;;;13.71;100.00;95665.91;646235;216;31598;-71
2021/08/09 01:20:21;;;;;;;3.60;2.00;;;12.10;1.40;;;13.64;100.00;95672.09;646182;216;31585;-72
2021/08/09 01:23:31;;;;;;;5.80;2.17;;;12.10;1.40;;;13.70;100.00;95667.14;646441;212;31579;-70
2021/08/09 01:29:12;;;;;;;1.90;1.70;;;12.40;1.40;;;14.03;100.00;95668.49;646500;212;31548;-71
2021/08/09 01:31:53;;;;;;;2.87;1.70;;;12.40;1.40;;;14.18;100.00;95666.38;647246;212;32927;-71
2021/08/09 01:35:54;;;;;;;3.62;1.90;;;12.40;1.40;;;14.03;100.00;95666.20;619580;223;31987;-70
2021/08/09 01:38:35;;;;;;;2.20;1.90;;;12.30;1.40;;;14.02;100.00;95667.39;646894;212;31576;-71
2021/08/09 01:41:17;;;;;;;3.43;2.03;;;12.20;1.40;;;14.01;100.00;95665.20;636944;212;32500;-71
2021/08/09 01:44:01;;;;;;;1.70;1.60;;;12.20;1.40;;;14.01;100.00;95660.25;616585;226;31889;-70
2021/08/09 01:46:43;;;;;;;3.60;2.10;;;12.30;1.40;;;14.03;100.00;95654.28;646530;216;31607;-71
2021/08/09 01:49:25;;;;;;;2.20;2.00;;;12.40;1.40;;;14.08;100.00;95654.56;646007;216;37958;-71
2021/08/09 01:52:06;;;;;;;4.40;2.20;;;12.40;1.40;;;14.13;100.00;95656.27;618487;222;37592;-71
2021/08/09 01:54:51;;;;;;;3.55;2.30;;;12.40;1.40;;;14.21;100.00;95653.02;645751;212;42271;-71
2021/08/09 01:57:33;;;;;;;2.12;2.03;;;12.50;1.40;;;14.34;100.00;95653.81;644936;212;31570;-71
2021/08/09 02:00:16;;;;;;;4.90;2.37;;;12.50;1.40;;;14.50;100.00;95649.98;645666;212;37561;-70
2021/08/09 02:02:57;;;;;;;3.40;2.07;;;12.70;1.40;;;14.59;100.00;95650.94;646238;216;31586;-70
2021/08/09 02:08:14;;;;;;;2.10;1.90;;;12.70;1.40;;;14.45;100.00;95650.52;620339;225;31902;-71
2021/08/09 02:10:59;;;;;;;4.07;1.70;;;12.70;1.40;;;14.48;100.00;95647.63;645477;216;33942;-72
2021/08/09 02:13:44;;;;;;;4.60;1.87;;;12.50;1.40;;;14.52;100.00;95648.91;646198;216;38068;-72
2021/08/09 02:16:38;;;;;;;4.47;1.83;;;12.50;1.40;;;14.30;100.00;95657.23;647281;216;31583;-70
2021/08/09 02:24:33;;;;;;;1.80;1.70;;;12.40;1.40;;;14.22;100.00;95653.79;646901;216;31594;-71
2021/08/09 02:27:19;;;;;;;2.80;2.20;;;12.40;1.40;;;14.23;100.00;95651.80;641866;215;31497;-71
2021/08/09 02:29:59;;;;;;;2.67;1.60;;;12.50;1.40;;;14.17;100.00;95649.59;645497;212;33244;-72
2021/08/09 02:32:41;;;;;;;5.20;2.10;;;12.50;1.40;;;14.13;100.00;95652.12;646778;216;42766;-71
2021/08/09 02:35:51;;;;;;;4.05;2.20;;;12.60;1.40;;;14.13;100.00;95650.70;646364;216;42207;-70
2021/08/09 02:38:33;;;;;;;4.30;2.00;;;12.70;1.40;;;14.16;100.00;95650.46;647432;212;33470;-73
2021/08/09 02:41:17;;;;;;;3.25;1.90;;;12.70;1.40;;;14.38;100.00;95650.67;646618;212;43351;-72
2021/08/09 02:43:59;;;;;;;1.93;1.80;;;12.70;1.40;;;14.33;100.00;95655.92;646870;213;31836;-71
2021/08/09 02:46:41;;;;;;;2.30;1.85;;;12.80;1.40;;;14.34;100.00;95653.58;647864;212;31719;-71
2021/08/09 02:49:22;;;;;;;1.98;1.77;;;12.80;1.40;;;14.47;100.00;95651.70;646779;216;38559;-71
2021/08/09 02:52:05;;;;;;;1.75;1.50;;;12.90;1.40;;;14.49;100.00;95652.23;645745;216;42196;-71
2021/08/09 02:54:46;;;;;;;3.10;1.85;;;12.90;1.40;;;14.35;100.00;95656.29;645901;212;36809;-71
2021/08/09 02:57:28;;;;;;;1.90;1.60;;;12.80;1.40;;;14.30;100.00;95657.67;646591;212;31565;-71
2021/08/09 03:00:13;;;;;;;1.80;1.70;;;12.70;1.40;;;14.20;100.00;95653.58;645424;216;32126;-71
2021/08/09 03:02:55;;;;;;;2.30;1.75;;;12.70;1.40;;;14.14;100.00;95658.48;646119;216;42183;-71
2021/08/09 03:05:37;;;;;;;3.75;2.00;;;12.70;1.40;;;14.23;100.00;95660.80;645949;216;41016;-71
2021/08/09 03:08:18;;;;;;;1.50;1.25;;;12.80;1.40;;;14.29;100.00;95668.99;646435;216;35349;-70
2021/08/09 03:11:03;;;;;;;2.15;1.75;;;12.80;1.40;;;14.27;100.00;95672.55;646877;216;42177;-70
2021/08/09 03:13:46;;;;;;;4.43;1.65;;;12.70;1.40;;;14.42;100.00;95671.16;646012;216;39163;-70
2021/08/09 03:16:27;;;;;;;1.50;1.40;;;12.80;1.40;;;14.44;100.00;95670.09;645859;216;31552;-71
2021/08/09 03:19:09;;;;;;;3.17;1.90;;;12.80;1.40;;;14.26;100.00;95671.22;646602;212;36747;-71
2021/08/09 03:21:52;;;;;;;3.17;1.83;;;12.90;1.40;;;14.21;100.00;95670.13;646419;216;31582;-70
2021/08/09 03:24:34;;;;;;;1.90;1.70;;;12.90;1.40;;;14.25;100.00;95677.58;646888;216;31566;-71
2021/08/09 03:27:16;;;;;;;3.50;2.10;;;12.90;1.40;;;14.25;100.00;95680.48;646822;212;31570;-71
2021/08/09 03:30:01;;;;;;;2.90;1.70;;;13.00;1.40;;;14.35;100.00;95678.10;646277;216;34469;-71
2021/08/09 03:32:42;;;;;;;3.00;1.70;;;13.10;1.40;;;14.36;100.00;95677.91;645656;212;31724;-71
2021/08/09 03:35:52;;;;;;;3.45;2.00;;;13.10;1.40;;;14.38;100.00;95680.50;646574;212;31553;-70
2021/08/09 03:38:34;;;;;;;3.80;1.87;;;13.10;1.40;;;14.39;100.00;95681.41;646339;213;42173;-71
2021/08/09 03:41:19;;;;;;;1.92;1.77;;;13.20;1.40;;;14.44;100.00;95682.91;636554;216;42376;-70
2021/08/09 03:44:00;;;;;;;2.70;1.87;;;13.20;1.40;;;14.51;100.00;95684.71;646495;216;31570;-71
2021/08/09 03:46:42;;;;;;;1.87;1.58;;;13.20;1.40;;;14.65;100.00;95681.63;647557;212;35166;-70
2021/08/09 03:49:24;;;;;;;2.37;1.65;;;13.10;1.40;;;14.64;100.00;95678.22;645690;216;31608;-70
2021/08/09 03:52:05;;;;;;;2.78;1.45;;;13.10;1.40;;;14.68;100.00;95675.38;646405;216;32569;-70
2021/08/09 03:54:47;;;;;;;1.62;1.50;;;13.00;1.40;;;14.55;100.00;95675.09;647162;212;31667;-71
2021/08/09 03:57:32;;;;;;;5.10;2.10;;;12.90;1.40;;;14.47;100.00;95679.64;646682;216;37565;-70
2021/08/09 04:00:13;;;;;;;2.22;1.50;;;12.70;1.40;;;14.40;100.00;95671.94;645852;216;31684;-70
2021/08/09 04:02:55;;;;;;;2.40;1.80;;;12.60;1.40;;;14.29;100.00;95673.64;645226;216;42182;-72
2021/08/09 04:05:40;;;;;;;2.50;1.70;;;12.50;1.40;;;14.21;100.00;95674.59;618755;222;32589;-71
2021/08/09 04:08:21;;;;;;;3.57;2.10;;;12.40;1.40;;;14.14;100.00;95673.86;647704;212;31545;-71
2021/08/09 04:11:03;;;;;;;3.30;1.77;;;12.30;1.40;;;14.05;100.00;95676.88;645705;216;31824;-71
2021/08/09 04:13:45;;;;;;;2.67;1.87;;;12.30;1.40;;;14.06;100.00;95685.59;645532;212;37937;-72
2021/08/09 04:16:27;;;;;;;3.25;1.80;;;12.20;1.40;;;14.05;100.00;95686.81;646560;212;32222;-71
2021/08/09 04:19:08;;;;;;;4.00;2.10;;;12.20;1.40;;;14.03;100.00;95688.56;646768;213;31599;-71
2021/08/09 04:21:50;;;;;;;3.10;1.90;;;12.20;1.40;;;14.04;100.00;95689.48;645601;216;37328;-72
2021/08/09 04:24:32;;;;;;;3.17;1.83;;;12.20;1.40;;;14.04;100.00;95686.46;647100;216;31590;-71
2021/08/09 04:29:48;;;;;;;3.10;1.90;;;12.30;1.40;;;13.97;100.00;95685.55;646255;216;31577;-71
2021/08/09 04:32:29;;;;;;;2.22;1.80;;;12.30;1.40;;;13.93;100.00;95689.24;646141;216;32969;-71
2021/08/09 04:35:51;;;;;;;3.47;2.15;;;12.20;1.40;;;13.85;100.00;95682.89;604971;222;32503;-70
2021/08/09 04:38:33;;;;;;;3.47;2.00;;;12.20;1.40;;;13.84;100.00;95686.47;646448;212;31715;-71
2021/08/09 04:41:14;;;;;;;2.65;1.90;;;12.10;1.40;;;13.89;100.00;95684.73;636628;216;33346;-72
2021/08/09 04:43:56;;;;;;;3.10;2.10;;;12.10;1.40;;;13.89;100.00;95683.56;646720;216;31942;-71
2021/08/09 04:46:38;;;;;;;3.57;2.30;;;12.00;1.40;;;13.90;100.00;95683.83;618792;222;31937;-71
2021/08/09 04:49:19;;;;;;;3.87;2.33;;;12.10;1.40;;;13.92;100.00;95686.09;647305;212;31579;-71
2021/08/09 04:52:01;;;;;;;2.67;2.20;;;12.10;1.40;;;13.94;100.00;95688.05;646152;212;31587;-72
2021/08/09 04:54:43;;;;;;;2.65;2.03;;;12.20;1.40;;;14.19;100.00;95687.55;645503;216;33869;-70
2021/08/09 04:57:26;;;;;;;2.62;1.90;;;12.30;1.40;;;14.22;100.00;95685.98;645522;216;31673;-70
2021/08/09 05:00:09;;;;;;;2.70;2.12;;;12.30;1.40;;;14.26;100.00;95690.36;647006;216;33409;-71
2021/08/09 05:02:51;;;;;;;3.00;2.40;;;12.40;1.40;;;14.29;100.00;95691.27;646527;216;32387;-70
2021/08/09 05:05:35;;;;;;;2.97;2.30;;;12.50;1.40;;;14.49;100.00;95700.14;646281;212;31596;-70
2021/08/09 05:08:17;;;;;;;2.43;2.10;;;12.70;1.40;;;14.66;100.00;95706.42;646247;212;31596;-71
2021/08/09 05:11:01;;;;;;;2.75;2.28;;;12.90;1.40;;;14.96;100.00;95703.12;645761;216;38122;-71
2021/08/09 05:13:43;;;;;;;2.30;2.10;;;13.10;1.40;;;15.27;100.00;95704.89;645870;216;32165;-71
2021/08/09 05:16:33;;;;;;;5.20;2.20;;;13.30;1.40;;;15.33;100.00;95707.91;646622;216;42345;-71
2021/08/09 05:19:14;;;;;;;3.78;2.20;;;13.50;1.40;;;15.44;100.00;95708.74;647793;216;43383;-71
2021/08/09 05:24:32;;;;;;;2.58;1.77;;;14.00;1.40;;;15.75;100.00;95701.92;619895;225;31927;-71
2021/08/09 05:27:14;;;;;;;1.90;1.70;;;14.10;1.40;;;15.74;100.00;95702.23;647097;212;31544;-71
2021/08/09 05:30:01;;;;;;;1.85;1.75;;;14.20;1.40;;;15.86;100.00;95703.64;619009;226;31905;-71
2021/08/09 05:32:43;;;;;;;2.20;2.00;;;14.20;1.40;;;15.55;100.00;95703.36;646165;212;31577;-71
2021/08/09 05:35:57;;;;;;;2.30;2.10;;;14.10;1.40;;;15.58;100.00;95710.77;645619;216;42305;-71
2021/08/09 05:41:19;;;;;;;3.83;1.97;;;14.10;1.40;;;15.66;100.00;95707.27;636593;216;31729;-71
2021/08/09 05:44:01;;;;;;;3.50;2.10;;;14.10;1.40;;;15.80;100.00;95707.86;645189;216;31748;-71
2021/08/09 05:46:49;;;;;;;2.50;1.77;;;14.00;1.40;;;15.79;100.00;95711.91;645992;216;31566;-71
2021/08/09 05:49:30;;;;;;;2.10;1.73;;;14.10;1.40;;;15.91;100.00;95706.95;646699;212;31590;-71
2021/08/09 05:52:21;;;;;;;1.80;1.60;;;14.10;1.40;;;15.85;100.00;95707.14;644535;212;31602;-71
2021/08/09 05:55:05;;;;;;;3.28;2.10;;;14.10;1.40;;;16.09;100.00;95712.46;646176;216;31573;-70
2021/08/09 05:57:48;;;;;;;1.92;1.83;;;14.30;1.40;;;16.22;100.00;95712.64;641520;217;31564;-72
2021/08/09 06:00:30;;;;;;;2.45;1.83;;;14.60;1.40;;;16.59;100.00;95707.92;647652;216;31552;-70
2021/08/09 06:05:53;;;;;;;2.43;1.70;;;15.20;1.40;;;16.88;100.00;95708.55;647111;212;31561;-71
2021/08/09 06:08:36;;;;;;;1.90;1.40;;;15.20;1.40;;;16.78;100.00;95700.34;645461;216;31571;-70
2021/08/09 06:11:18;;;;;;;4.03;1.60;;;15.10;1.40;;;16.71;100.00;95703.13;646299;216;31574;-70
2021/08/09 06:13:59;;;;;;;3.85;1.90;;;15.10;1.40;;;16.84;100.00;95706.73;646100;212;32464;-70
2021/08/09 06:16:41;;;;;;;4.25;1.98;;;15.10;1.40;;;16.96;100.00;95704.35;645918;216;31638;-71
2021/08/09 06:19:29;;;;;;;2.62;1.55;;;15.10;1.40;;;16.95;100.00;95706.39;645694;212;32126;-71
2021/08/09 06:22:16;;;;;;;3.83;1.65;;;15.10;1.40;;;17.08;100.00;95708.30;645441;216;31573;-70
2021/08/09 06:25:05;;;;;;;6.35;4.28;;;15.10;1.40;;;17.05;100.00;95703.22;646245;216;31586;-70
2021/08/09 06:27:52;;;;;;;4.60;2.80;;;15.20;1.40;;;17.05;100.00;95702.39;645679;216;31580;-71
2021/08/09 06:30:34;;;;;;;1.90;1.70;;;15.30;1.40;;;17.12;100.00;95709.97;646415;216;31866;-70
2021/08/09 06:35:54;;;;;;;1.60;1.50;;;15.60;1.40;;;17.44;100.00;95715.21;646661;216;31736;-71
2021/08/09 06:38:42;;;;;;;1.65;1.35;;;15.70;1.40;;;17.48;100.00;95717.63;645654;216;32111;-71
2021/08/09 06:41:25;;;;;;;4.00;1.58;;;15.80;1.40;;;17.75;100.00;95716.64;611302;226;32711;-71
2021/08/09 06:44:12;;;;;;;1.40;1.30;;;15.80;1.40;;;17.75;100.00;95709.61;646101;216;31667;-70
2021/08/09 06:47:00;;;;;;;2.70;1.35;;;15.90;1.40;;;17.56;100.00;95706.52;646204;216;31701;-70
2021/08/09 06:49:42;;;;;;;4.43;1.70;;;15.90;1.40;;;17.62;100.00;95703.11;645926;216;31628;-71
2021/08/09 06:52:23;;;;;;;2.10;1.40;;;16.00;1.40;;;17.83;100.00;95706.50;646580;216;31884;-70
2021/08/09 06:55:07;;;;;;;1.27;1.02;;;16.10;1.40;;;18.00;100.00;95699.87;644020;216;31579;-71
2021/08/09 06:57:53;;;;;;;2.70;1.40;;;16.20;1.40;;;17.97;93.50;95693.92;645662;212;31625;-70
2021/08/09 07:00:41;;;;;;;2.50;1.40;;;16.40;1.40;;;18.18;94.88;95700.05;647041;216;31847;-72
2021/08/09 07:03:29;;;;;;;1.70;1.50;;;16.50;1.40;;;18.27;91.08;95708.09;646357;216;31550;-72
2021/08/09 07:06:20;;;;;;;1.80;1.40;;;16.60;1.40;;;18.36;88.99;95712.26;646230;213;31767;-70
2021/08/09 07:09:03;;;;;;;2.47;1.80;;;16.60;1.40;;;18.51;88.84;95709.98;645276;215;32663;-71
2021/08/09 07:11:45;;;;;;;2.78;1.33;;;16.80;1.40;;;18.75;88.77;95709.37;645411;216;31566;-74
2021/08/09 07:14:32;;;;;;;2.03;1.50;;;17.10;1.40;;;18.78;86.98;95711.14;646730;216;31930;-70
2021/08/09 07:17:16;;;;;;;1.80;1.40;;;17.30;1.40;;;18.89;83.20;95711.88;646314;212;31541;-71
2021/08/09 07:19:58;;;;;;;1.95;1.40;;;17.30;1.40;;;19.04;82.87;95714.19;646122;216;31561;-71
2021/08/09 07:22:42;;;;;;;3.10;1.40;;;17.30;1.40;;;19.01;82.25;95718.14;647096;212;31532;-70
2021/08/09 07:25:30;;;;;;;2.17;1.20;;;17.50;1.40;;;19.28;78.17;95723.48;645807;216;31620;-70
2021/08/09 07:28:17;;;;;;;2.17;1.30;;;17.70;1.40;;;19.68;78.28;95720.58;618139;225;32979;-71
2021/08/09 07:31:02;;;;;;;1.80;1.40;;;17.80;1.40;;;19.90;76.39;95715.35;646728;216;31568;-70
2021/08/09 07:36:00;;;;;;;1.98;1.30;;;18.20;1.40;;;20.04;74.34;95707.38;646503;216;31591;-70
2021/08/09 07:38:45;;;;;;;1.73;1.30;;;18.10;1.40;;;20.28;76.16;95710.83;646472;212;31500;-70
2021/08/09 07:41:26;;;;;;;1.60;1.20;;;18.20;1.40;;;20.17;74.59;95706.23;635956;213;31677;-71
2021/08/09 07:46:43;;;;;;;2.35;1.60;;;18.20;1.40;;;20.55;73.81;95715.66;619868;222;32031;-71
2021/08/09 07:49:27;;;;;;;1.73;1.23;;;18.40;1.40;;;20.35;70.59;95714.25;647329;212;31523;-71
2021/08/09 07:52:09;;;;;;;1.50;1.30;;;18.50;1.40;;;20.40;70.63;95711.39;646309;212;33752;-70
2021/08/09 07:54:55;;;;;;;3.47;1.50;;;18.50;1.40;;;20.58;69.53;95705.36;646308;216;31531;-73
2021/08/09 07:57:35;;;;;;;3.17;1.20;;;18.40;1.40;;;20.37;67.21;95699.95;645964;213;31547;-71
2021/08/09 08:00:17;;;;;;;2.87;1.52;;;18.50;1.40;;;20.27;67.85;95701.09;646299;216;31547;-71
2021/08/09 08:02:59;;;;;;;2.05;1.35;;;18.70;1.40;;;20.26;69.32;95702.34;646479;212;31583;-70
2021/08/09 08:05:46;;;;;;;1.80;1.20;;;18.80;1.40;;;20.20;67.40;95705.73;646655;216;31563;-71
2021/08/09 08:08:34;;;;;;;4.55;1.85;;;18.90;1.40;;;20.65;69.82;95705.08;645952;212;31532;-71
2021/08/09 08:11:15;;;;;;;1.50;1.23;;;19.20;1.40;;;21.24;69.69;95703.02;644791;212;31550;-71
2021/08/09 08:13:57;;;;;;;2.55;1.10;;;19.70;1.40;;;21.58;70.02;95704.16;644942;212;31713;-71
2021/08/09 08:16:39;;;;;;;1.80;1.40;;;20.00;1.40;;;21.22;66.06;95704.22;646393;212;31585;-71
2021/08/09 08:19:21;;;;;;;1.60;1.15;;;19.70;1.40;;;21.38;66.84;95698.19;646798;212;31512;-71
2021/08/09 08:22:08;;;;;;;2.20;1.20;;;19.80;1.40;;;21.31;66.29;95693.97;646338;212;31806;-72
2021/08/09 08:24:56;;;;;;;1.70;1.20;;;20.00;1.40;;;21.41;64.00;95694.09;645854;216;42195;-71
2021/08/09 08:27:38;;;;;;;2.00;1.23;;;20.00;1.40;;;21.42;67.15;95695.41;644992;216;31609;-71
2021/08/09 08:30:25;;;;;;;2.47;1.20;;;20.10;1.40;;;22.03;63.64;95697.40;646053;212;32055;-72
2021/08/09 08:38:37;;;;;;;2.03;1.30;;;20.70;1.40;;;22.10;60.72;95702.62;646001;216;31570;-70
2021/08/09 08:41:24;;;;;;;2.22;1.40;;;20.50;1.40;;;22.89;63.10;95702.08;637050;212;31743;-71
2021/08/09 08:44:17;;;;;;;2.25;1.10;;;20.90;1.40;;;23.22;59.56;95706.04;644800;216;31537;-71
2021/08/09 08:49:33;;;;;;;4.20;1.40;;;21.00;1.40;;;23.74;60.35;95706.53;645610;212;32193;-70
2021/08/09 08:52:14;;;;;;;1.50;1.00;;;21.20;1.40;;;23.88;59.62;95707.88;647640;216;31575;-71
2021/08/09 08:54:56;;;;;;;1.90;1.20;;;21.50;1.40;;;23.64;61.25;95715.48;645660;212;31694;-71
2021/08/09 08:57:45;;;;;;;2.40;1.15;;;21.80;1.40;;;23.72;60.06;95718.86;645133;216;31697;-71
2021/08/09 09:00:27;;;;;;;2.60;1.40;;;22.00;1.40;;;23.64;59.95;95712.45;645594;216;31498;-71
2021/08/09 09:05:59;;;;;;;2.80;1.50;;;22.40;1.40;;;24.70;57.29;95716.14;645126;216;42863;-71
2021/08/09 09:08:44;;;;;;;3.00;1.30;;;22.70;1.40;;;23.80;54.98;95721.36;646601;216;31561;-71
2021/08/09 09:11:40;;;;;;;2.30;1.30;;;22.20;1.40;;;23.83;53.25;95718.63;647035;212;31555;-71
2021/08/09 09:14:27;;;;;;;1.70;1.20;;;21.90;1.40;;;25.09;53.00;95713.20;646117;216;31563;-72
2021/08/09 09:17:08;;;;;;;2.10;1.20;;;22.50;1.40;;;25.45;52.20;95714.86;646275;216;31560;-71
2021/08/09 09:19:50;;;;;;;1.30;1.20;;;23.60;1.40;;;26.26;51.12;95719.10;645781;212;31575;-71
2021/08/09 09:22:38;;;;;;;2.80;1.30;;;24.40;1.40;;;26.16;53.31;95718.39;647109;216;42168;-71
2021/08/09 09:25:32;;;;;;;2.30;1.20;;;25.20;1.40;;;26.44;51.71;95715.78;645689;216;32261;-71
2021/08/09 09:28:28;;;;;;;2.75;1.10;;;25.70;1.40;;;29.03;49.59;95712.13;647249;216;31556;-71
2021/08/09 09:31:13;;;;;;;2.05;1.35;;;26.30;1.40;;;27.57;46.79;95716.22;645368;212;31739;-72
2021/08/09 09:35:54;;;;;;;1.85;1.40;;;25.90;1.40;;;29.74;42.80;95713.84;646314;216;31623;-71
2021/08/09 09:38:41;;;;;;;1.80;1.10;;;27.10;1.40;;;31.51;43.74;95708.52;645551;212;31509;-72
2021/08/09 09:41:23;;;;;;;1.50;1.10;;;27.80;1.40;;;31.74;38.92;95718.52;636516;216;31727;-72
2021/08/09 09:44:11;;;;;;;1.58;1.45;;;28.10;1.40;;;30.17;40.32;95723.55;646221;216;31513;-72
2021/08/09 09:47:19;;;;;;;1.37;1.08;;;27.30;1.40;;;27.48;46.10;95724.77;645549;212;32153;-71
2021/08/09 09:50:03;;;;;;;3.42;1.60;;;25.70;1.40;;;28.04;45.45;95722.12;646203;216;31526;-72
2021/08/09 09:52:45;;;;;;;2.33;1.50;;;25.70;1.40;;;29.23;43.32;95710.70;647260;216;31586;-72
2021/08/09 09:55:32;;;;;;;2.70;1.40;;;25.70;1.40;;;30.10;44.46;95708.39;646097;216;31676;-72
2021/08/09 09:58:20;;;;;;;2.08;1.40;;;26.90;1.40;;;29.76;41.17;95715.43;646031;212;31651;-71
2021/08/09 10:01:05;;;;;;;2.28;1.48;;;25.80;1.40;;;30.16;41.76;95715.56;645906;212;42183;-71
2021/08/09 10:03:47;;;;;;;2.08;1.10;;;25.90;1.40;;;31.28;41.35;95713.43;647521;212;31980;-71
2021/08/09 10:06:28;;;;;;;3.20;1.33;;;27.70;1.40;;;33.57;38.36;95712.33;646846;212;31577;-72
2021/08/09 10:09:10;;;;;;;3.03;1.52;;;29.10;1.40;;;35.14;35.77;95704.06;645821;216;31689;-72
2021/08/09 10:11:52;;;;;;;1.37;1.27;;;29.80;1.40;;;36.12;33.65;95701.58;647030;213;31570;-72
2021/08/09 10:14:35;;;;;;;2.60;1.23;;;30.50;1.40;;;36.03;30.46;95697.42;646500;216;31571;-73
2021/08/09 10:17:23;;;;;;;1.67;1.30;;;29.90;1.40;;;32.43;36.14;95706.94;644889;216;32503;-72
2021/08/09 10:20:06;;;;;;;3.72;1.70;;;27.60;1.40;;;31.17;38.83;95706.85;646337;212;42861;-72
2021/08/09 10:22:55;;;;;;;2.90;1.60;;;25.70;1.40;;;31.11;39.71;95702.39;646461;216;32067;-72
2021/08/09 10:25:47;;;;;;;3.22;1.65;;;25.80;1.40;;;32.89;35.22;95703.08;617680;226;32245;-72
2021/08/09 10:31:25;;;;;;;2.20;1.33;;;26.10;1.40;;;30.92;36.34;95700.83;646274;215;31645;-72
2021/08/09 10:35:56;;;;;;;2.10;1.40;;;27.00;1.40;;;31.06;38.56;95696.80;646866;213;31608;-72
2021/08/09 10:38:44;;;;;;;1.83;1.15;;;26.80;1.40;;;30.35;41.42;95692.73;646024;216;31508;-71
2021/08/09 10:41:28;;;;;;;3.78;1.70;;;25.80;1.40;;;28.15;42.10;95695.86;608420;226;32064;-72
2021/08/09 10:44:25;;;;;;;2.12;1.67;;;25.20;1.40;;;28.89;41.77;95694.92;647783;216;31660;-71
2021/08/09 10:47:06;;;;;;;2.53;1.70;;;25.50;1.40;;;31.36;38.58;95686.31;645805;212;42748;-72
2021/08/09 10:49:54;;;;;;;1.98;1.50;;;26.50;1.40;;;32.84;39.21;95686.52;619986;226;31936;-73
2021/08/09 10:52:46;;;;;;;2.90;1.60;;;28.10;1.40;;;34.01;34.11;95687.05;648151;216;31604;-72
2021/08/09 10:58:13;;;;;;;3.17;2.00;;;27.50;1.40;;;33.93;35.93;95687.91;647251;216;31729;-72
2021/08/09 11:00:55;;;;;;;2.90;1.70;;;28.60;1.40;;;33.59;38.34;95686.95;646182;212;42727;-71
2021/08/09 11:04:15;;;;;;;2.55;1.60;;;28.30;1.40;;;34.18;37.60;95682.03;646519;212;42415;-72
2021/08/09 11:06:59;;;;;;;1.73;1.45;;;28.90;1.40;;;35.83;34.96;95684.58;646511;212;31636;-72
2021/08/09 11:09:46;;;;;;;2.75;1.48;;;29.00;1.40;;;35.85;33.72;95682.35;618725;222;32278;-72
2021/08/09 11:12:28;;;;;;;3.00;1.80;;;29.50;1.40;;;36.34;31.92;95677.89;645930;212;42211;-73
2021/08/09 11:15:13;;;;;;;2.50;1.42;;;29.50;1.40;;;37.21;30.89;95680.83;645668;216;31542;-72
2021/08/09 11:17:57;;;;;;;2.72;1.60;;;29.40;1.40;;;36.96;34.30;95676.30;645787;216;32117;-73
2021/08/09 11:23:19;;;;;;;2.42;1.70;;;30.20;1.40;;;36.28;34.58;95685.17;646879;216;31552;-73
2021/08/09 11:26:04;;;;;;;1.50;1.27;;;30.40;1.40;;;36.21;31.54;95684.70;645773;216;31669;-71
2021/08/09 11:29:00;;;;;;;2.47;1.50;;;27.70;1.40;;;33.83;34.58;95682.19;647084;216;32206;-73
2021/08/09 11:31:45;;;;;;;2.08;1.30;;;25.90;1.40;;;33.75;35.75;95680.23;647388;212;31589;-72
2021/08/09 11:35:54;;;;;;;2.58;1.30;;;29.00;1.40;;;34.72;35.49;95678.63;647109;212;31580;-73
2021/08/09 11:38:49;;;;;;;2.20;1.48;;;28.10;1.40;;;33.92;34.83;95673.92;646389;212;32260;-71
2021/08/09 11:41:30;;;;;;;2.10;1.50;;;27.10;1.40;;;32.55;35.91;95679.53;610100;222;32231;-72
2021/08/09 11:44:12;;;;;;;2.65;1.55;;;26.30;1.40;;;32.83;35.83;95675.75;646415;212;32150;-72
2021/08/09 11:49:03;;;;;;;2.45;1.58;;;28.40;1.40;;;37.03;31.50;95677.19;647512;212;32796;-72
2021/08/09 11:51:51;;;;;;;2.80;1.60;;;29.10;1.40;;;35.51;33.30;95673.50;646310;212;31563;-72
2021/08/09 11:54:38;;;;;;;2.50;1.50;;;27.90;1.40;;;36.50;31.94;95678.81;647632;212;31794;-72
2021/08/09 11:57:22;;;;;;;2.05;1.50;;;28.80;1.40;;;34.76;34.37;95683.62;630229;217;31707;-71
2021/08/09 12:00:05;;;;;;;2.87;1.70;;;27.60;1.40;;;34.18;34.53;95680.48;646683;216;31665;-71
2021/08/09 12:03:03;;;;;;;3.20;1.70;;;28.20;1.40;;;34.20;33.49;95685.47;647102;216;31574;-72
2021/08/09 12:05:51;;;;;;;4.15;2.10;;;26.40;1.40;;;31.73;37.83;95693.43;646961;212;32306;-72
2021/08/09 12:08:51;;;;;;;3.92;1.40;;;25.40;1.40;;;31.49;36.96;95692.42;646694;212;32505;-72
2021/08/09 12:11:32;;;;;;;2.97;1.60;;;25.00;1.40;;;30.70;37.74;95694.86;647056;216;42721;-72
2021/08/09 12:14:17;;;;;;;2.47;1.50;;;25.30;1.40;;;31.88;36.38;95693.37;645026;212;31980;-72
2021/08/09 12:17:12;;;;;;;3.42;1.50;;;26.50;1.40;;;32.19;38.22;95693.09;647661;212;31547;-72
2021/08/09 12:20:00;;;;;;;2.97;1.40;;;27.70;1.40;;;34.11;36.13;95685.52;618688;222;31867;-71
2021/08/09 12:22:47;;;;;;;2.35;1.52;;;29.20;1.40;;;35.90;33.05;95689.65;644964;216;32100;-72
2021/08/09 12:25:35;;;;;;;1.50;1.12;;;29.40;1.40;;;37.53;32.57;95685.50;645766;216;31549;-72
2021/08/09 12:28:17;;;;;;;2.78;1.80;;;31.00;1.40;;;37.09;29.32;95686.78;645774;212;31579;-72
2021/08/09 12:31:04;;;;;;;2.40;1.30;;;30.40;1.40;;;37.88;29.54;95684.09;646979;216;31564;-73
2021/08/09 12:35:53;;;;;;;2.05;1.55;;;31.40;1.40;;;39.12;28.97;95672.64;646923;212;42743;-73
2021/08/09 12:39:31;;;;;;;2.70;1.40;;;31.70;1.40;;;39.86;28.43;95672.94;646993;213;31729;-72
2021/08/09 12:42:19;;;;;;;2.35;1.80;;;31.60;1.40;;;39.02;29.55;95680.67;646586;216;31832;-72
2021/08/09 12:45:08;;;;;;;2.50;1.50;;;31.50;1.40;;;40.54;27.11;95680.42;646457;216;32567;-72
2021/08/09 12:47:55;;;;;;;1.98;1.50;;;30.70;1.40;;;40.22;27.23;95680.32;646077;216;31752;-73